createdAt,value
2018-05-27T00:00:28.877Z,18.79
2018-05-27T00:01:37.525Z,18.74
2018-05-27T00:02:46.169Z,18.76
2018-05-27T00:03:54.825Z,18.7
2018-05-27T00:05:03.468Z,18.73
2018-05-27T00:06:12.114Z,18.68
2018-05-27T00:07:20.757Z,18.71
2018-05-27T00:08:29.673Z,18.7
2018-05-27T00:09:38.321Z,18.61
2018-05-27T00:10:47.233Z,18.61
2018-05-27T00:11:55.885Z,18.53
2018-05-27T00:13:04.528Z,18.63
2018-05-27T00:14:13.183Z,18.6
2018-05-27T00:15:21.831Z,18.52
2018-05-27T00:16:30.485Z,18.48
2018-05-27T00:17:39.411Z,18.49
2018-05-27T00:18:48.056Z,18.45
2018-05-27T00:19:56.970Z,18.45
2018-05-27T00:21:05.622Z,18.36
2018-05-27T00:22:14.267Z,18.34
2018-05-27T00:23:22.922Z,18.39
2018-05-27T00:24:31.568Z,18.28
2018-05-27T00:25:40.222Z,18.3
2018-05-27T00:26:48.869Z,18.27
2018-05-27T00:27:57.520Z,18.24
2018-05-27T00:29:06.166Z,18.26
2018-05-27T00:30:14.809Z,18.23
2018-05-27T00:31:23.730Z,18.23
2018-05-27T00:32:32.380Z,18.24
2018-05-27T00:33:41.028Z,18.19
2018-05-27T00:34:49.672Z,18.26
2018-05-27T00:35:58.598Z,18.13
2018-05-27T00:37:07.245Z,18.09
2018-05-27T00:38:15.894Z,18.11
2018-05-27T00:39:24.539Z,18
2018-05-27T00:40:33.191Z,18.09
2018-05-27T00:41:41.839Z,18.03
2018-05-27T00:42:50.489Z,18.13
2018-05-27T00:43:59.132Z,17.94
2018-05-27T00:45:07.783Z,18.06
2018-05-27T00:46:16.708Z,18.02
2018-05-27T00:47:25.618Z,17.95
2018-05-27T00:48:34.273Z,17.97
2018-05-27T00:49:42.912Z,17.91
2018-05-27T00:50:51.835Z,17.94
2018-05-27T00:52:00.505Z,17.97
2018-05-27T00:53:09.408Z,17.84
2018-05-27T00:54:18.048Z,17.8
2018-05-27T00:55:26.701Z,17.86
2018-05-27T00:56:35.345Z,17.82
2018-05-27T00:57:44.002Z,17.75
2018-05-27T00:58:52.641Z,17.79
2018-05-27T01:00:01.568Z,17.82
2018-05-27T01:01:10.477Z,17.8
2018-05-27T01:02:19.134Z,17.76
2018-05-27T01:03:28.051Z,17.79
2018-05-27T01:04:36.693Z,17.71
2018-05-27T01:05:45.339Z,17.75
2018-05-27T01:06:53.990Z,17.69
2018-05-27T01:08:02.904Z,17.71
2018-05-27T01:09:11.550Z,17.65
2018-05-27T01:10:20.199Z,17.68
2018-05-27T01:11:28.838Z,17.57
2018-05-27T01:12:37.763Z,17.6
2018-05-27T01:13:46.405Z,17.63
2018-05-27T01:14:55.055Z,17.54
2018-05-27T01:16:03.692Z,17.52
2018-05-27T01:17:12.351Z,17.52
2018-05-27T01:18:20.996Z,17.54
2018-05-27T01:19:29.644Z,17.46
2018-05-27T01:20:38.282Z,17.46
2018-05-27T01:21:46.934Z,17.44
2018-05-27T01:22:55.586Z,17.42
2018-05-27T01:24:04.234Z,17.49
2018-05-27T01:25:12.889Z,17.42
2018-05-27T01:26:21.525Z,17.37
2018-05-27T01:27:30.176Z,17.46
2018-05-27T01:28:38.820Z,17.32
2018-05-27T01:29:47.484Z,17.38
2018-05-27T01:30:56.118Z,17.32
2018-05-27T01:32:05.046Z,17.34
2018-05-27T01:33:13.686Z,17.31
2018-05-27T01:34:22.342Z,17.37
2018-05-27T01:35:30.980Z,17.28
2018-05-27T01:36:39.630Z,17.3
2018-05-27T01:37:48.535Z,17.23
2018-05-27T01:38:57.191Z,17.17
2018-05-27T01:40:06.104Z,17.16
2018-05-27T01:41:15.009Z,17.17
2018-05-27T01:42:23.656Z,17.24
2018-05-27T01:43:32.307Z,17.22
2018-05-27T01:44:40.950Z,17.22
2018-05-27T01:45:49.596Z,17.17
2018-05-27T01:46:58.244Z,17.16
2018-05-27T01:48:06.893Z,17.07
2018-05-27T01:49:15.533Z,17.1
2018-05-27T01:50:24.179Z,17.02
2018-05-27T01:51:32.828Z,17.05
2018-05-27T01:52:41.481Z,17.01
2018-05-27T01:53:50.124Z,17.02
2018-05-27T01:54:58.773Z,16.99
2018-05-27T01:56:07.947Z,16.98
2018-05-27T01:57:16.601Z,17.01
2018-05-27T01:58:25.247Z,16.94
2018-05-27T01:59:33.893Z,16.99
2018-05-27T02:00:43.073Z,16.91
2018-05-27T02:01:51.718Z,16.83
2018-05-27T02:03:00.376Z,16.87
2018-05-27T02:04:09.025Z,16.82
2018-05-27T02:05:17.671Z,16.8
2018-05-27T02:06:26.313Z,16.87
2018-05-27T02:07:34.965Z,16.83
2018-05-27T02:08:43.612Z,16.77
2018-05-27T02:09:52.261Z,16.73
2018-05-27T02:11:00.902Z,16.76
2018-05-27T02:12:09.554Z,16.77
2018-05-27T02:13:18.199Z,16.73
2018-05-27T02:14:26.854Z,16.76
2018-05-27T02:15:35.491Z,16.74
2018-05-27T02:16:44.139Z,16.69
2018-05-27T02:17:52.786Z,16.73
2018-05-27T02:19:01.439Z,16.77
2018-05-27T02:20:10.091Z,16.73
2018-05-27T02:21:18.731Z,16.74
2018-05-27T02:22:27.379Z,16.79
2018-05-27T02:23:36.028Z,16.77
2018-05-27T02:24:44.955Z,16.76
2018-05-27T02:25:53.601Z,16.69
2018-05-27T02:27:02.247Z,16.76
2018-05-27T02:28:11.166Z,16.73
2018-05-27T02:29:19.816Z,16.72
2018-05-27T02:30:28.459Z,16.76
2018-05-27T02:31:37.109Z,16.73
2018-05-27T02:32:45.753Z,16.69
2018-05-27T02:33:54.690Z,16.68
2018-05-27T02:35:03.342Z,16.68
2018-05-27T02:36:12.257Z,16.66
2018-05-27T02:37:21.180Z,16.59
2018-05-27T02:38:29.825Z,16.65
2018-05-27T02:39:38.482Z,16.76
2018-05-27T02:40:47.387Z,16.69
2018-05-27T02:41:56.043Z,16.62
2018-05-27T02:43:04.942Z,16.77
2018-05-27T02:44:13.600Z,16.59
2018-05-27T02:45:22.511Z,16.62
2018-05-27T02:46:31.163Z,16.74
2018-05-27T02:47:40.069Z,16.66
2018-05-27T02:48:49.267Z,16.72
2018-05-27T02:49:57.909Z,16.62
2018-05-27T02:51:07.114Z,16.57
2018-05-27T02:52:15.759Z,16.61
2018-05-27T02:53:24.678Z,16.57
2018-05-27T02:54:33.598Z,16.68
2018-05-27T02:55:42.249Z,16.57
2018-05-27T02:56:50.905Z,16.62
2018-05-27T02:57:59.545Z,16.62
2018-05-27T02:59:08.213Z,16.55
2018-05-27T03:00:16.854Z,16.62
2018-05-27T03:01:25.513Z,16.58
2018-05-27T03:02:34.419Z,16.59
2018-05-27T03:03:43.077Z,16.55
2018-05-27T03:04:51.985Z,16.55
2018-05-27T03:06:00.645Z,16.51
2018-05-27T03:07:09.564Z,16.51
2018-05-27T03:08:18.213Z,16.47
2018-05-27T03:09:27.393Z,16.5
2018-05-27T03:10:36.051Z,16.41
2018-05-27T03:11:44.697Z,16.41
2018-05-27T03:12:53.627Z,16.49
2018-05-27T03:14:02.550Z,16.41
2018-05-27T03:15:11.717Z,16.4
2018-05-27T03:16:20.381Z,16.41
2018-05-27T03:17:29.025Z,16.37
2018-05-27T03:18:37.676Z,16.36
2018-05-27T03:19:46.574Z,16.36
2018-05-27T03:20:55.234Z,16.34
2018-05-27T03:22:03.878Z,16.43
2018-05-27T03:23:12.537Z,16.44
2018-05-27T03:24:21.169Z,16.34
2018-05-27T03:25:29.829Z,16.32
2018-05-27T03:26:38.467Z,16.4
2018-05-27T03:27:47.116Z,16.4
2018-05-27T03:28:55.756Z,16.32
2018-05-27T03:30:04.668Z,16.44
2018-05-27T03:31:13.327Z,16.44
2018-05-27T03:32:21.982Z,16.43
2018-05-27T03:33:30.635Z,16.41
2018-05-27T03:34:39.796Z,16.39
2018-05-27T03:35:48.448Z,16.37
2018-05-27T03:36:57.355Z,16.39
2018-05-27T03:38:06.043Z,16.46
2018-05-27T03:39:14.688Z,16.37
2018-05-27T03:40:23.331Z,16.41
2018-05-27T03:41:32.246Z,16.41
2018-05-27T03:42:40.882Z,16.41
2018-05-27T03:43:49.537Z,16.44
2018-05-27T03:44:58.184Z,16.4
2018-05-27T03:46:07.096Z,16.37
2018-05-27T03:47:15.992Z,16.41
2018-05-27T03:48:24.643Z,16.4
2018-05-27T03:49:33.556Z,16.39
2018-05-27T03:50:42.200Z,16.4
2018-05-27T03:51:51.110Z,16.43
2018-05-27T03:52:59.749Z,16.44
2018-05-27T03:54:08.671Z,16.4
2018-05-27T03:55:17.572Z,16.4
2018-05-27T03:56:26.242Z,16.43
2018-05-27T03:57:35.144Z,16.32
2018-05-27T03:58:43.798Z,16.32
2018-05-27T03:59:52.438Z,16.28
2018-05-27T04:01:01.103Z,16.29
2018-05-27T04:02:10.001Z,16.32
2018-05-27T04:03:18.917Z,16.32
2018-05-27T04:04:27.563Z,16.29
2018-05-27T04:05:36.220Z,16.36
2018-05-27T04:06:44.867Z,16.29
2018-05-27T04:07:53.510Z,16.29
2018-05-27T04:09:02.153Z,16.32
2018-05-27T04:10:10.799Z,16.31
2018-05-27T04:11:19.450Z,16.4
2018-05-27T04:12:28.357Z,16.44
2018-05-27T04:13:37.011Z,16.34
2018-05-27T04:14:45.648Z,16.37
2018-05-27T04:15:54.306Z,16.41
2018-05-27T04:17:02.950Z,16.46
2018-05-27T04:18:11.875Z,16.4
2018-05-27T04:19:20.787Z,16.41
2018-05-27T04:20:29.706Z,16.39
2018-05-27T04:21:38.622Z,16.4
2018-05-27T04:22:47.270Z,16.39
2018-05-27T04:23:55.903Z,16.4
2018-05-27T04:25:04.556Z,16.37
2018-05-27T04:26:13.491Z,16.41
2018-05-27T04:27:22.139Z,16.44
2018-05-27T04:28:30.880Z,16.44
2018-05-27T04:29:39.428Z,16.51
2018-05-27T04:30:48.085Z,16.46
2018-05-27T04:31:56.729Z,16.47
2018-05-27T04:33:05.651Z,16.49
2018-05-27T04:34:14.294Z,16.5
2018-05-27T04:35:23.212Z,16.55
2018-05-27T04:36:32.134Z,16.61
2018-05-27T04:37:40.770Z,16.54
2018-05-27T04:38:49.676Z,16.51
2018-05-27T04:39:58.326Z,16.55
2018-05-27T04:41:06.970Z,16.57
2018-05-27T04:42:15.621Z,16.68
2018-05-27T04:43:24.264Z,16.68
2018-05-27T04:44:32.914Z,16.72
2018-05-27T04:45:41.821Z,16.69
2018-05-27T04:46:50.464Z,16.59
2018-05-27T04:47:59.117Z,16.68
2018-05-27T04:49:07.768Z,16.73
2018-05-27T04:50:16.416Z,16.74
2018-05-27T04:51:25.058Z,16.72
2018-05-27T04:52:33.709Z,16.76
2018-05-27T04:53:42.617Z,16.76
2018-05-27T04:54:51.262Z,16.77
2018-05-27T04:55:59.907Z,16.89
2018-05-27T04:57:08.564Z,16.97
2018-05-27T04:58:17.208Z,16.92
2018-05-27T04:59:25.877Z,16.94
2018-05-27T05:00:34.499Z,16.95
2018-05-27T05:01:43.145Z,16.95
2018-05-27T05:02:51.793Z,16.98
2018-05-27T05:04:00.441Z,17.01
2018-05-27T05:05:09.091Z,17.04
2018-05-27T05:06:17.732Z,17.05
2018-05-27T05:07:26.380Z,17.16
2018-05-27T05:08:35.292Z,17.2
2018-05-27T05:09:43.943Z,17.19
2018-05-27T05:10:52.583Z,17.27
2018-05-27T05:12:01.229Z,17.3
2018-05-27T05:13:09.877Z,17.31
2018-05-27T05:14:18.530Z,17.42
2018-05-27T05:15:27.439Z,17.42
2018-05-27T05:16:36.365Z,17.41
2018-05-27T05:17:45.279Z,17.44
2018-05-27T05:18:54.202Z,17.42
2018-05-27T05:20:02.851Z,17.53
2018-05-27T05:21:11.757Z,17.57
2018-05-27T05:22:20.401Z,17.68
2018-05-27T05:23:29.317Z,17.68
2018-05-27T05:24:38.236Z,17.73
2018-05-27T05:25:46.883Z,17.76
2018-05-27T05:26:55.798Z,17.8
2018-05-27T05:28:04.446Z,17.82
2018-05-27T05:29:13.099Z,17.93
2018-05-27T05:30:21.741Z,17.87
2018-05-27T05:31:30.390Z,17.87
2018-05-27T05:32:39.032Z,17.91
2018-05-27T05:33:47.684Z,18
2018-05-27T05:34:56.329Z,17.9
2018-05-27T05:36:04.982Z,17.97
2018-05-27T05:37:13.625Z,18.09
2018-05-27T05:38:22.277Z,18.09
2018-05-27T05:39:30.933Z,18.23
2018-05-27T05:40:39.583Z,18.21
2018-05-27T05:41:48.237Z,18.19
2018-05-27T05:42:56.875Z,18.26
2018-05-27T05:44:05.529Z,18.33
2018-05-27T05:45:14.172Z,18.39
2018-05-27T05:46:22.828Z,18.39
2018-05-27T05:47:31.731Z,18.42
2018-05-27T05:48:40.384Z,18.55
2018-05-27T05:49:49.027Z,18.53
2018-05-27T05:50:57.684Z,18.71
2018-05-27T05:52:06.321Z,18.76
2018-05-27T05:53:15.237Z,18.71
2018-05-27T05:54:23.883Z,18.79
2018-05-27T05:55:32.540Z,18.82
2018-05-27T05:56:41.187Z,18.79
2018-05-27T05:57:49.830Z,18.94
2018-05-27T05:58:58.740Z,19.01
2018-05-27T06:00:07.392Z,18.94
2018-05-27T06:01:16.399Z,19.01
2018-05-27T06:02:25.298Z,19.08
2018-05-27T06:03:33.953Z,19.08
2018-05-27T06:04:42.589Z,19.2
2018-05-27T06:05:51.247Z,19.15
2018-05-27T06:06:59.891Z,19.17
2018-05-27T06:08:08.542Z,19.15
2018-05-27T06:09:17.182Z,19.32
2018-05-27T06:10:25.841Z,19.29
2018-05-27T06:11:34.488Z,19.39
2018-05-27T06:12:43.139Z,19.39
2018-05-27T06:13:52.314Z,19.52
2018-05-27T06:15:01.236Z,19.56
2018-05-27T06:16:10.442Z,19.66
2018-05-27T06:17:19.092Z,19.62
2018-05-27T06:18:27.745Z,19.66
2018-05-27T06:19:36.393Z,19.75
2018-05-27T06:20:45.361Z,19.74
2018-05-27T06:21:54.005Z,19.75
2018-05-27T06:23:02.661Z,19.85
2018-05-27T06:24:11.301Z,19.82
2018-05-27T06:25:19.964Z,19.96
2018-05-27T06:26:28.603Z,19.9
2018-05-27T06:27:37.259Z,19.96
2018-05-27T06:28:45.905Z,20
2018-05-27T06:29:54.559Z,20.1
2018-05-27T06:31:03.206Z,20.14
2018-05-27T06:32:12.215Z,20.15
2018-05-27T06:33:20.862Z,20.17
2018-05-27T06:34:29.504Z,20.22
2018-05-27T06:35:38.154Z,20.21
2018-05-27T06:36:46.799Z,20.22
2018-05-27T06:37:55.456Z,20.29
2018-05-27T06:39:04.367Z,20.32
2018-05-27T06:40:13.022Z,20.37
2018-05-27T06:41:21.930Z,20.44
2018-05-27T06:42:30.585Z,20.58
2018-05-27T06:43:39.234Z,20.53
2018-05-27T06:44:47.885Z,20.64
2018-05-27T06:45:56.793Z,20.64
2018-05-27T06:47:05.448Z,20.7
2018-05-27T06:48:14.099Z,20.7
2018-05-27T06:49:23.014Z,20.74
2018-05-27T06:50:31.659Z,20.7
2018-05-27T06:51:40.312Z,20.83
2018-05-27T06:52:48.962Z,20.8
2018-05-27T06:53:57.616Z,20.86
2018-05-27T06:55:06.267Z,20.89
2018-05-27T06:56:14.913Z,20.89
2018-05-27T06:57:23.608Z,20.95
2018-05-27T06:58:32.215Z,21.03
2018-05-27T06:59:40.867Z,21.05
2018-05-27T07:00:49.512Z,21.05
2018-05-27T07:01:58.161Z,21.22
2018-05-27T07:03:06.811Z,21.26
2018-05-27T07:04:15.464Z,21.23
2018-05-27T07:05:24.371Z,21.25
2018-05-27T07:06:33.024Z,21.33
2018-05-27T07:07:41.667Z,21.35
2018-05-27T07:08:50.321Z,21.43
2018-05-27T07:09:58.968Z,21.37
2018-05-27T07:11:07.626Z,21.43
2018-05-27T07:12:16.273Z,21.37
2018-05-27T07:13:24.922Z,21.44
2018-05-27T07:14:33.576Z,21.38
2018-05-27T07:15:42.226Z,21.58
2018-05-27T07:16:51.140Z,21.56
2018-05-27T07:17:59.784Z,21.53
2018-05-27T07:19:08.441Z,21.56
2018-05-27T07:20:17.090Z,21.7
2018-05-27T07:21:25.742Z,21.69
2018-05-27T07:22:34.389Z,21.74
2018-05-27T07:23:43.055Z,21.8
2018-05-27T07:24:51.969Z,21.81
2018-05-27T07:26:00.622Z,21.85
2018-05-27T07:27:09.546Z,21.96
2018-05-27T07:28:18.464Z,21.99
2018-05-27T07:29:27.116Z,21.96
2018-05-27T07:30:36.031Z,22.03
2018-05-27T07:31:44.681Z,22.14
2018-05-27T07:32:53.325Z,22.07
2018-05-27T07:34:01.979Z,22.14
2018-05-27T07:35:10.631Z,22.21
2018-05-27T07:36:19.812Z,22.19
2018-05-27T07:37:28.469Z,22.25
2018-05-27T07:38:37.117Z,22.38
2018-05-27T07:39:45.765Z,22.34
2018-05-27T07:40:54.679Z,22.44
2018-05-27T07:42:03.338Z,22.49
2018-05-27T07:43:11.991Z,22.44
2018-05-27T07:44:20.643Z,22.55
2018-05-27T07:45:29.289Z,22.61
2018-05-27T07:46:38.262Z,22.73
2018-05-27T07:47:46.867Z,22.61
2018-05-27T07:48:55.780Z,22.7
2018-05-27T07:50:04.434Z,22.77
2018-05-27T07:51:13.085Z,22.76
2018-05-27T07:52:21.733Z,22.71
2018-05-27T07:53:30.387Z,22.71
2018-05-27T07:54:39.045Z,22.86
2018-05-27T07:55:47.695Z,22.93
2018-05-27T07:56:56.347Z,22.92
2018-05-27T07:58:04.993Z,23.01
2018-05-27T07:59:13.651Z,22.93
2018-05-27T08:00:22.566Z,23.07
2018-05-27T08:01:31.222Z,23.14
2018-05-27T08:02:39.873Z,23.08
2018-05-27T08:03:48.792Z,23.2
2018-05-27T08:04:57.442Z,23.25
2018-05-27T08:06:06.097Z,23.23
2018-05-27T08:07:14.745Z,23.28
2018-05-27T08:08:23.393Z,23.26
2018-05-27T08:09:32.050Z,23.26
2018-05-27T08:10:40.708Z,23.23
2018-05-27T08:11:49.355Z,23.29
2018-05-27T08:12:58.000Z,23.32
2018-05-27T08:14:06.923Z,23.42
2018-05-27T08:15:15.575Z,23.42
2018-05-27T08:16:24.499Z,23.42
2018-05-27T08:17:33.150Z,23.51
2018-05-27T08:18:42.066Z,23.49
2018-05-27T08:19:50.815Z,23.55
2018-05-27T08:20:59.374Z,23.62
2018-05-27T08:22:08.562Z,23.58
2018-05-27T08:23:17.216Z,23.7
2018-05-27T08:24:25.867Z,23.79
2018-05-27T08:25:34.792Z,23.77
2018-05-27T08:26:43.448Z,23.86
2018-05-27T08:27:52.094Z,23.86
2018-05-27T08:29:00.747Z,23.86
2018-05-27T08:30:09.405Z,23.85
2018-05-27T08:31:18.063Z,23.95
2018-05-27T08:32:26.709Z,23.89
2018-05-27T08:33:35.368Z,23.88
2018-05-27T08:34:44.014Z,23.96
2018-05-27T08:35:52.673Z,24
2018-05-27T08:37:01.321Z,24.03
2018-05-27T08:38:09.975Z,24.09
2018-05-27T08:39:18.624Z,24.04
2018-05-27T08:40:27.287Z,24.11
2018-05-27T08:41:35.937Z,24.14
2018-05-27T08:42:44.586Z,24.19
2018-05-27T08:43:53.235Z,24.21
2018-05-27T08:45:01.894Z,24.25
2018-05-27T08:46:10.558Z,24.34
2018-05-27T08:47:19.205Z,24.4
2018-05-27T08:48:27.863Z,24.43
2018-05-27T08:49:36.507Z,24.43
2018-05-27T08:50:45.168Z,24.4
2018-05-27T08:51:53.814Z,24.43
2018-05-27T08:53:02.477Z,24.46
2018-05-27T08:54:11.117Z,24.53
2018-05-27T08:55:20.044Z,24.51
2018-05-27T08:56:28.693Z,24.56
2018-05-27T08:57:37.352Z,24.53
2018-05-27T08:58:46.004Z,24.59
2018-05-27T08:59:54.658Z,24.66
2018-05-27T09:01:03.315Z,24.74
2018-05-27T09:02:12.250Z,24.71
2018-05-27T09:03:20.904Z,24.75
2018-05-27T09:04:29.549Z,24.77
2018-05-27T09:05:38.208Z,24.84
2018-05-27T09:06:46.857Z,24.94
2018-05-27T09:07:55.518Z,24.96
2018-05-27T09:09:04.164Z,25.01
2018-05-27T09:10:13.091Z,25
2018-05-27T09:11:21.743Z,25.04
2018-05-27T09:12:30.405Z,25.12
2018-05-27T09:13:39.049Z,25.12
2018-05-27T09:14:47.702Z,25.14
2018-05-27T09:15:56.613Z,25.09
2018-05-27T09:17:05.276Z,25.18
2018-05-27T09:18:13.926Z,25.15
2018-05-27T09:19:22.579Z,25.22
2018-05-27T09:20:31.227Z,25.24
2018-05-27T09:21:39.877Z,25.3
2018-05-27T09:22:48.539Z,25.43
2018-05-27T09:23:57.188Z,25.49
2018-05-27T09:25:05.870Z,25.44
2018-05-27T09:26:14.756Z,25.55
2018-05-27T09:27:23.420Z,25.43
2018-05-27T09:28:32.072Z,25.48
2018-05-27T09:29:40.731Z,25.55
2018-05-27T09:30:49.380Z,25.49
2018-05-27T09:31:58.041Z,25.62
2018-05-27T09:33:06.688Z,25.56
2018-05-27T09:34:15.347Z,25.62
2018-05-27T09:35:23.992Z,25.7
2018-05-27T09:36:32.646Z,25.81
2018-05-27T09:37:41.574Z,25.81
2018-05-27T09:38:50.488Z,25.89
2018-05-27T09:39:59.142Z,25.81
2018-05-27T09:41:07.794Z,25.98
2018-05-27T09:42:16.448Z,25.96
2018-05-27T09:43:25.098Z,25.98
2018-05-27T09:44:33.762Z,26.07
2018-05-27T09:45:42.403Z,26.04
2018-05-27T09:46:51.074Z,26.15
2018-05-27T09:47:59.730Z,26.13
2018-05-27T09:49:08.662Z,26.23
2018-05-27T09:50:17.568Z,26.26
2018-05-27T09:51:26.240Z,26.27
2018-05-27T09:52:34.881Z,26.33
2018-05-27T09:53:43.539Z,26.3
2018-05-27T09:54:52.190Z,26.37
2018-05-27T09:56:00.846Z,26.31
2018-05-27T09:57:09.489Z,26.33
2018-05-27T09:58:18.141Z,26.29
2018-05-27T09:59:26.803Z,26.24
2018-05-27T10:00:35.455Z,26.16
2018-05-27T10:01:44.113Z,26.19
2018-05-27T10:02:52.759Z,26.18
2018-05-27T10:04:01.428Z,26.34
2018-05-27T10:05:10.339Z,26.34
2018-05-27T10:06:18.996Z,26.44
2018-05-27T10:07:27.646Z,26.56
2018-05-27T10:08:36.303Z,26.61
2018-05-27T10:09:44.956Z,26.68
2018-05-27T10:10:53.612Z,26.63
2018-05-27T10:12:02.520Z,26.7
2018-05-27T10:13:11.176Z,26.73
2018-05-27T10:14:19.835Z,26.74
2018-05-27T10:15:28.494Z,26.81
2018-05-27T10:16:37.416Z,26.91
2018-05-27T10:17:46.065Z,26.98
2018-05-27T10:18:55.029Z,27
2018-05-27T10:20:03.637Z,26.98
2018-05-27T10:21:12.300Z,27.01
2018-05-27T10:22:20.958Z,27.07
2018-05-27T10:23:29.601Z,27.16
2018-05-27T10:24:38.250Z,27.16
2018-05-27T10:25:47.227Z,27.18
2018-05-27T10:26:55.823Z,27.29
2018-05-27T10:28:04.481Z,27.3
2018-05-27T10:29:13.133Z,27.23
2018-05-27T10:30:21.793Z,27.2
2018-05-27T10:31:30.444Z,27.16
2018-05-27T10:32:39.099Z,27.19
2018-05-27T10:33:48.035Z,27.1
2018-05-27T10:34:56.951Z,27.1
2018-05-27T10:36:05.609Z,27.03
2018-05-27T10:37:14.266Z,27.1
2018-05-27T10:38:22.922Z,27.22
2018-05-27T10:39:31.574Z,27.2
2018-05-27T10:40:40.234Z,27.37
2018-05-27T10:41:48.891Z,27.26
2018-05-27T10:42:57.544Z,27.4
2018-05-27T10:44:06.194Z,27.35
2018-05-27T10:45:15.118Z,27.43
2018-05-27T10:46:23.772Z,27.43
2018-05-27T10:47:32.430Z,27.44
2018-05-27T10:48:41.079Z,27.43
2018-05-27T10:49:49.740Z,27.55
2018-05-27T10:50:58.397Z,27.57
2018-05-27T10:52:07.096Z,27.5
2018-05-27T10:53:15.709Z,27.58
2018-05-27T10:54:24.359Z,27.47
2018-05-27T10:55:33.036Z,27.41
2018-05-27T10:56:41.691Z,27.35
2018-05-27T10:57:50.349Z,27.37
2018-05-27T10:58:58.999Z,27.34
2018-05-27T11:00:07.655Z,27.44
2018-05-27T11:01:16.310Z,27.48
2018-05-27T11:02:24.969Z,27.58
2018-05-27T11:03:33.619Z,27.63
2018-05-27T11:04:42.278Z,27.83
2018-05-27T11:05:51.041Z,27.95
2018-05-27T11:06:59.599Z,28.03
2018-05-27T11:08:08.251Z,28.1
2018-05-27T11:09:17.166Z,28.09
2018-05-27T11:10:25.815Z,28.2
2018-05-27T11:11:34.468Z,28.3
2018-05-27T11:12:43.129Z,28.38
2018-05-27T11:13:51.789Z,28.4
2018-05-27T11:15:00.444Z,28.5
2018-05-27T11:16:09.094Z,28.57
2018-05-27T11:17:17.753Z,28.55
2018-05-27T11:18:26.407Z,28.57
2018-05-27T11:19:35.333Z,28.57
2018-05-27T11:20:44.045Z,28.62
2018-05-27T11:21:52.645Z,28.65
2018-05-27T11:23:01.296Z,28.67
2018-05-27T11:24:09.957Z,28.56
2018-05-27T11:25:18.617Z,28.6
2018-05-27T11:26:27.274Z,28.56
2018-05-27T11:27:35.932Z,28.59
2018-05-27T11:28:44.851Z,28.7
2018-05-27T11:29:53.507Z,28.7
2018-05-27T11:31:02.166Z,28.72
2018-05-27T11:32:11.088Z,28.67
2018-05-27T11:33:19.741Z,28.72
2018-05-27T11:34:28.392Z,28.77
2018-05-27T11:35:37.105Z,28.83
2018-05-27T11:36:45.705Z,28.78
2018-05-27T11:37:54.634Z,28.7
2018-05-27T11:39:03.286Z,28.7
2018-05-27T11:40:11.951Z,28.7
2018-05-27T11:41:20.604Z,28.71
2018-05-27T11:42:29.877Z,28.75
2018-05-27T11:43:38.507Z,28.72
2018-05-27T11:44:47.165Z,28.71
2018-05-27T11:45:56.084Z,28.5
2018-05-27T11:47:05.010Z,28.37
2018-05-27T11:48:13.667Z,28.45
2018-05-27T11:49:22.319Z,28.37
2018-05-27T11:50:31.512Z,28.43
2018-05-27T11:51:40.171Z,28.49
2018-05-27T11:52:48.831Z,28.52
2018-05-27T11:53:57.483Z,28.5
2018-05-27T11:55:06.687Z,28.62
2018-05-27T11:56:15.610Z,28.52
2018-05-27T11:57:24.270Z,28.6
2018-05-27T11:58:32.923Z,28.64
2018-05-27T11:59:41.583Z,28.6
2018-05-27T12:00:50.238Z,28.59
2018-05-27T12:01:58.955Z,28.59
2018-05-27T12:03:07.552Z,28.55
2018-05-27T12:04:16.208Z,28.6
2018-05-27T12:05:24.866Z,28.49
2018-05-27T12:06:33.518Z,28.4
2018-05-27T12:07:42.180Z,28.31
2018-05-27T12:08:50.836Z,28.34
2018-05-27T12:09:59.758Z,28.2
2018-05-27T12:11:08.697Z,28.34
2018-05-27T12:12:17.360Z,28.3
2018-05-27T12:13:26.016Z,28.35
2018-05-27T12:14:34.940Z,28.46
2018-05-27T12:15:43.589Z,28.57
2018-05-27T12:16:52.254Z,28.74
2018-05-27T12:18:00.906Z,28.75
2018-05-27T12:19:09.567Z,28.8
2018-05-27T12:20:18.219Z,28.92
2018-05-27T12:21:26.877Z,28.84
2018-05-27T12:22:35.533Z,28.84
2018-05-27T12:23:44.191Z,28.8
2018-05-27T12:24:53.381Z,28.86
2018-05-27T12:26:02.036Z,28.93
2018-05-27T12:27:10.695Z,28.9
2018-05-27T12:28:19.352Z,28.9
2018-05-27T12:29:28.013Z,28.94
2018-05-27T12:30:36.660Z,29.02
2018-05-27T12:31:45.323Z,29
2018-05-27T12:32:54.237Z,29.09
2018-05-27T12:34:02.907Z,29.16
2018-05-27T12:35:11.555Z,29.22
2018-05-27T12:36:20.213Z,29.22
2018-05-27T12:37:28.867Z,29.25
2018-05-27T12:38:37.530Z,29.4
2018-05-27T12:39:46.187Z,29.4
2018-05-27T12:40:54.835Z,29.42
2018-05-27T12:42:03.490Z,29.31
2018-05-27T12:43:12.145Z,29.32
2018-05-27T12:44:20.811Z,29.31
2018-05-27T12:45:29.462Z,29.35
2018-05-27T12:46:38.125Z,29.47
2018-05-27T12:47:46.774Z,29.46
2018-05-27T12:48:55.440Z,29.5
2018-05-27T12:50:04.353Z,29.4
2018-05-27T12:51:13.015Z,29.37
2018-05-27T12:52:21.663Z,29.4
2018-05-27T12:53:30.331Z,29.32
2018-05-27T12:54:38.985Z,29.28
2018-05-27T12:55:47.909Z,29.27
2018-05-27T12:56:56.823Z,29.27
2018-05-27T12:58:05.829Z,29.3
2018-05-27T12:59:14.488Z,29.37
2018-05-27T13:00:23.149Z,29.5
2018-05-27T13:01:31.806Z,29.49
2018-05-27T13:02:40.720Z,29.37
2018-05-27T13:03:49.381Z,29.31
2018-05-27T13:04:58.031Z,29.43
2018-05-27T13:06:06.697Z,29.4
2018-05-27T13:07:15.622Z,29.64
2018-05-27T13:08:24.550Z,29.69
2018-05-27T13:09:33.204Z,29.73
2018-05-27T13:10:41.869Z,29.76
2018-05-27T13:11:50.521Z,29.87
2018-05-27T13:12:59.174Z,29.95
2018-05-27T13:14:07.842Z,30.01
2018-05-27T13:15:16.500Z,30.05
2018-05-27T13:16:25.251Z,30.14
2018-05-27T13:17:34.264Z,30.18
2018-05-27T13:18:42.917Z,30.31
2018-05-27T13:19:51.578Z,30.36
2018-05-27T13:21:00.244Z,30.29
2018-05-27T13:22:09.155Z,30.31
2018-05-27T13:23:17.818Z,30.2
2018-05-27T13:24:26.467Z,30.13
2018-05-27T13:25:35.396Z,30.03
2018-05-27T13:26:44.052Z,30.06
2018-05-27T13:27:52.711Z,30.06
2018-05-27T13:29:01.633Z,30.01
2018-05-27T13:30:10.298Z,29.99
2018-05-27T13:31:18.952Z,29.92
2018-05-27T13:32:28.147Z,29.86
2018-05-27T13:33:36.802Z,29.84
2018-05-27T13:34:45.460Z,29.77
2018-05-27T13:35:54.380Z,29.74
2018-05-27T13:37:03.040Z,29.73
2018-05-27T13:38:11.699Z,29.67
2018-05-27T13:39:20.352Z,29.68
2018-05-27T13:40:29.271Z,29.61
2018-05-27T13:41:38.197Z,29.55
2018-05-27T13:42:46.857Z,29.43
2018-05-27T13:43:55.511Z,29.28
2018-05-27T13:45:04.247Z,29.25
2018-05-27T13:46:13.231Z,29.22
2018-05-27T13:47:21.914Z,29.15
2018-05-27T13:48:30.832Z,29.06
2018-05-27T13:49:39.769Z,28.97
2018-05-27T13:50:48.418Z,28.87
2018-05-27T13:51:57.080Z,28.9
2018-05-27T13:53:05.737Z,28.82
2018-05-27T13:54:14.396Z,28.71
2018-05-27T13:55:23.062Z,28.49
2018-05-27T13:56:32.043Z,28.38
2018-05-27T13:57:40.703Z,28.4
2018-05-27T13:58:49.630Z,28.22
2018-05-27T13:59:58.292Z,28.15
2018-05-27T14:01:07.209Z,28.12
2018-05-27T14:02:15.871Z,28
2018-05-27T14:03:24.526Z,27.9
2018-05-27T14:04:33.450Z,27.83
2018-05-27T14:05:42.098Z,27.83
2018-05-27T14:06:51.025Z,27.81
2018-05-27T14:07:59.683Z,27.75
2018-05-27T14:09:08.342Z,27.75
2018-05-27T14:10:17.010Z,27.68
2018-05-27T14:11:25.653Z,27.71
2018-05-27T14:12:34.314Z,27.63
2018-05-27T14:13:42.978Z,27.67
2018-05-27T14:14:51.899Z,27.73
2018-05-27T14:16:00.550Z,27.68
2018-05-27T14:17:09.775Z,27.75
2018-05-27T14:18:19.024Z,27.75
2018-05-27T14:19:27.683Z,27.73
2018-05-27T14:20:36.335Z,27.76
2018-05-27T14:21:44.991Z,27.66
2018-05-27T14:22:53.648Z,27.67
2018-05-27T14:24:02.315Z,27.66
2018-05-27T14:25:11.274Z,27.66
2018-05-27T14:26:19.906Z,27.71
2018-05-27T14:27:28.560Z,27.73
2018-05-27T14:28:37.226Z,27.75
2018-05-27T14:29:45.881Z,27.83
2018-05-27T14:30:54.531Z,27.78
2018-05-27T14:32:03.453Z,27.82
2018-05-27T14:33:12.441Z,27.82
2018-05-27T14:34:21.061Z,27.9
2018-05-27T14:35:29.712Z,27.88
2018-05-27T14:36:38.375Z,27.98
2018-05-27T14:37:47.021Z,27.91
2018-05-27T14:38:55.712Z,27.98
2018-05-27T14:40:04.337Z,28.08
2018-05-27T14:41:12.999Z,28.04
2018-05-27T14:42:21.644Z,28.09
2018-05-27T14:43:30.309Z,28.08
2018-05-27T14:44:38.964Z,28.13
2018-05-27T14:45:47.627Z,28.13
2018-05-27T14:46:56.271Z,28.15
2018-05-27T14:48:04.931Z,28.16
2018-05-27T14:49:13.591Z,28.22